sensor_id;sensor_type;location;lat;lon;timestamp;P1;durP1;ratioP1;P2;durP2;ratioP2
1775;SDS011;885;42.626;23.200;2022-12-07T00:01:21;6.10;;;5.47;;
1775;SDS011;885;42.626;23.200;2022-12-07T00:03:51;9.60;;;4.30;;
1775;SDS011;885;42.626;23.200;2022-12-07T00:06:19;7.40;;;5.83;;
1775;SDS011;885;42.626;23.200;2022-12-07T00:08:46;7.23;;;4.70;;
1775;SDS011;885;42.626;23.200;2022-12-07T00:11:15;13.03;;;6.60;;
1775;SDS011;885;42.626;23.200;2022-12-07T00:13:44;7.50;;;4.67;;
1775;SDS011;885;42.626;23.200;2022-12-07T00:16:12;6.17;;;4.73;;
1775;SDS011;885;42.626;23.200;2022-12-07T00:18:40;6.40;;;4.57;;
1775;SDS011;885;42.626;23.200;2022-12-07T00:21:09;8.30;;;5.33;;
1775;SDS011;885;42.626;23.200;2022-12-07T00:23:38;7.20;;;5.67;;
1775;SDS011;885;42.626;23.200;2022-12-07T00:26:06;8.67;;;5.00;;
1775;SDS011;885;42.626;23.200;2022-12-07T00:28:34;8.00;;;4.70;;
1775;SDS011;885;42.626;23.200;2022-12-07T00:31:03;7.63;;;5.90;;
1775;SDS011;885;42.626;23.200;2022-12-07T00:33:32;12.50;;;6.03;;
1775;SDS011;885;42.626;23.200;2022-12-07T00:35:59;6.93;;;5.63;;
1775;SDS011;885;42.626;23.200;2022-12-07T00:38:27;9.17;;;5.33;;
1775;SDS011;885;42.626;23.200;2022-12-07T00:40:56;12.73;;;5.93;;
1775;SDS011;885;42.626;23.200;2022-12-07T00:43:23;5.93;;;5.10;;
1775;SDS011;885;42.626;23.200;2022-12-07T00:45:50;7.57;;;5.27;;
1775;SDS011;885;42.626;23.200;2022-12-07T00:48:19;7.30;;;5.40;;
1775;SDS011;885;42.626;23.200;2022-12-07T00:50:46;9.83;;;6.10;;
1775;SDS011;885;42.626;23.200;2022-12-07T00:53:14;7.70;;;6.90;;
1775;SDS011;885;42.626;23.200;2022-12-07T00:55:41;10.57;;;6.70;;
1775;SDS011;885;42.626;23.200;2022-12-07T00:58:09;13.63;;;5.27;;
1775;SDS011;885;42.626;23.200;2022-12-07T01:00:37;6.97;;;5.63;;
1775;SDS011;885;42.626;23.200;2022-12-07T01:03:05;9.20;;;5.50;;
1775;SDS011;885;42.626;23.200;2022-12-07T01:05:34;6.80;;;5.73;;
1775;SDS011;885;42.626;23.200;2022-12-07T01:08:02;7.27;;;5.30;;
1775;SDS011;885;42.626;23.200;2022-12-07T01:10:30;12.23;;;5.07;;
1775;SDS011;885;42.626;23.200;2022-12-07T01:12:57;10.57;;;5.30;;
1775;SDS011;885;42.626;23.200;2022-12-07T01:15:24;8.50;;;5.80;;
1775;SDS011;885;42.626;23.200;2022-12-07T01:17:52;7.27;;;6.17;;
1775;SDS011;885;42.626;23.200;2022-12-07T01:20:19;6.93;;;4.90;;
1775;SDS011;885;42.626;23.200;2022-12-07T01:22:48;7.80;;;5.43;;
1775;SDS011;885;42.626;23.200;2022-12-07T01:25:15;7.70;;;5.67;;
1775;SDS011;885;42.626;23.200;2022-12-07T01:27:41;7.50;;;5.80;;
1775;SDS011;885;42.626;23.200;2022-12-07T01:30:09;8.23;;;6.67;;
1775;SDS011;885;42.626;23.200;2022-12-07T01:32:37;9.43;;;6.20;;
1775;SDS011;885;42.626;23.200;2022-12-07T01:35:04;7.47;;;5.57;;
1775;SDS011;885;42.626;23.200;2022-12-07T01:37:33;10.07;;;6.10;;
1775;SDS011;885;42.626;23.200;2022-12-07T01:40:07;7.63;;;6.23;;
1775;SDS011;885;42.626;23.200;2022-12-07T01:42:34;9.57;;;6.90;;
1775;SDS011;885;42.626;23.200;2022-12-07T01:48:05;16.60;;;6.70;;
1775;SDS011;885;42.626;23.200;2022-12-07T01:50:35;12.83;;;6.70;;
1775;SDS011;885;42.626;23.200;2022-12-07T01:53:04;9.00;;;6.20;;
1775;SDS011;885;42.626;23.200;2022-12-07T01:55:38;9.40;;;6.10;;
1775;SDS011;885;42.626;23.200;2022-12-07T01:58:08;10.87;;;5.90;;
1775;SDS011;885;42.626;23.200;2022-12-07T02:00:37;6.73;;;5.43;;
1775;SDS011;885;42.626;23.200;2022-12-07T02:03:05;8.87;;;6.20;;
1775;SDS011;885;42.626;23.200;2022-12-07T02:05:36;8.90;;;5.80;;
1775;SDS011;885;42.626;23.200;2022-12-07T02:08:04;9.93;;;6.47;;
1775;SDS011;885;42.626;23.200;2022-12-07T02:10:32;7.60;;;5.40;;
1775;SDS011;885;42.626;23.200;2022-12-07T02:13:01;6.73;;;5.43;;
1775;SDS011;885;42.626;23.200;2022-12-07T02:15:33;9.80;;;6.83;;
1775;SDS011;885;42.626;23.200;2022-12-07T02:18:13;7.83;;;6.13;;
1775;SDS011;885;42.626;23.200;2022-12-07T02:20:48;12.97;;;6.20;;
1775;SDS011;885;42.626;23.200;2022-12-07T02:23:45;6.80;;;5.77;;
1775;SDS011;885;42.626;23.200;2022-12-07T02:29:39;6.80;;;5.37;;
1775;SDS011;885;42.626;23.200;2022-12-07T02:32:12;10.97;;;6.90;;
1775;SDS011;885;42.626;23.200;2022-12-07T02:34:44;14.53;;;8.03;;
1775;SDS011;885;42.626;23.200;2022-12-07T02:37:22;13.97;;;7.20;;
1775;SDS011;885;42.626;23.200;2022-12-07T02:39:59;39.53;;;20.37;;
1775;SDS011;885;42.626;23.200;2022-12-07T02:42:33;13.23;;;7.27;;
1775;SDS011;885;42.626;23.200;2022-12-07T02:45:07;7.37;;;6.57;;
1775;SDS011;885;42.626;23.200;2022-12-07T02:47:38;10.40;;;6.47;;
1775;SDS011;885;42.626;23.200;2022-12-07T02:50:07;8.50;;;6.10;;
1775;SDS011;885;42.626;23.200;2022-12-07T02:52:35;7.70;;;6.90;;
1775;SDS011;885;42.626;23.200;2022-12-07T02:55:02;8.57;;;6.70;;
1775;SDS011;885;42.626;23.200;2022-12-07T02:57:41;10.33;;;7.20;;
1775;SDS011;885;42.626;23.200;2022-12-07T03:00:18;13.90;;;7.90;;
1775;SDS011;885;42.626;23.200;2022-12-07T03:02:50;10.67;;;7.43;;
1775;SDS011;885;42.626;23.200;2022-12-07T03:05:27;10.17;;;7.70;;
1775;SDS011;885;42.626;23.200;2022-12-07T03:08:04;12.30;;;6.73;;
1775;SDS011;885;42.626;23.200;2022-12-07T03:10:40;8.53;;;6.07;;
1775;SDS011;885;42.626;23.200;2022-12-07T03:13:17;8.67;;;6.33;;
1775;SDS011;885;42.626;23.200;2022-12-07T03:15:52;9.43;;;6.07;;
1775;SDS011;885;42.626;23.200;2022-12-07T03:18:23;10.20;;;6.20;;
1775;SDS011;885;42.626;23.200;2022-12-07T03:20:55;6.37;;;5.77;;
1775;SDS011;885;42.626;23.200;2022-12-07T03:23:28;8.83;;;6.10;;
1775;SDS011;885;42.626;23.200;2022-12-07T03:26:00;8.63;;;6.50;;
1775;SDS011;885;42.626;23.200;2022-12-07T03:28:31;10.73;;;7.33;;
1775;SDS011;885;42.626;23.200;2022-12-07T03:31:02;11.13;;;7.43;;
1775;SDS011;885;42.626;23.200;2022-12-07T03:33:38;13.07;;;7.83;;
1775;SDS011;885;42.626;23.200;2022-12-07T03:36:08;12.47;;;7.80;;
1775;SDS011;885;42.626;23.200;2022-12-07T03:38:40;13.73;;;9.17;;
1775;SDS011;885;42.626;23.200;2022-12-07T03:41:14;10.40;;;7.10;;
1775;SDS011;885;42.626;23.200;2022-12-07T03:43:48;16.33;;;8.70;;
1775;SDS011;885;42.626;23.200;2022-12-07T03:46:19;13.63;;;8.40;;
1775;SDS011;885;42.626;23.200;2022-12-07T03:48:53;13.60;;;9.13;;
1775;SDS011;885;42.626;23.200;2022-12-07T03:51:26;10.30;;;7.33;;
1775;SDS011;885;42.626;23.200;2022-12-07T03:54:02;11.23;;;7.83;;
1775;SDS011;885;42.626;23.200;2022-12-07T03:56:36;16.67;;;9.83;;
1775;SDS011;885;42.626;23.200;2022-12-07T03:59:04;11.23;;;8.23;;
1775;SDS011;885;42.626;23.200;2022-12-07T04:01:33;17.97;;;9.10;;
1775;SDS011;885;42.626;23.200;2022-12-07T04:04:00;11.87;;;9.10;;
1775;SDS011;885;42.626;23.200;2022-12-07T04:06:27;13.30;;;9.93;;
1775;SDS011;885;42.626;23.200;2022-12-07T04:08:54;13.77;;;9.30;;
1775;SDS011;885;42.626;23.200;2022-12-07T04:11:20;10.20;;;9.13;;
1775;SDS011;885;42.626;23.200;2022-12-07T04:13:47;12.40;;;8.70;;
1775;SDS011;885;42.626;23.200;2022-12-07T04:16:31;11.77;;;8.40;;
1775;SDS011;885;42.626;23.200;2022-12-07T04:19:00;12.07;;;9.10;;
1775;SDS011;885;42.626;23.200;2022-12-07T04:21:27;10.97;;;8.57;;
1775;SDS011;885;42.626;23.200;2022-12-07T04:23:53;11.10;;;9.00;;
1775;SDS011;885;42.626;23.200;2022-12-07T04:26:20;12.37;;;8.93;;
1775;SDS011;885;42.626;23.200;2022-12-07T04:28:47;14.47;;;8.67;;
1775;SDS011;885;42.626;23.200;2022-12-07T04:31:14;14.97;;;9.13;;
1775;SDS011;885;42.626;23.200;2022-12-07T04:33:42;11.80;;;8.33;;
1775;SDS011;885;42.626;23.200;2022-12-07T04:36:09;13.27;;;9.20;;
1775;SDS011;885;42.626;23.200;2022-12-07T04:38:36;12.60;;;7.90;;
1775;SDS011;885;42.626;23.200;2022-12-07T04:41:04;9.33;;;7.60;;
1775;SDS011;885;42.626;23.200;2022-12-07T04:43:32;7.83;;;7.03;;
1775;SDS011;885;42.626;23.200;2022-12-07T04:45:59;13.47;;;11.23;;
1775;SDS011;885;42.626;23.200;2022-12-07T04:48:26;13.37;;;7.50;;
1775;SDS011;885;42.626;23.200;2022-12-07T04:50:54;7.27;;;6.57;;
1775;SDS011;885;42.626;23.200;2022-12-07T04:53:21;9.50;;;6.67;;
1775;SDS011;885;42.626;23.200;2022-12-07T04:55:48;7.00;;;6.33;;
1775;SDS011;885;42.626;23.200;2022-12-07T04:58:15;7.40;;;5.90;;
1775;SDS011;885;42.626;23.200;2022-12-07T05:00:42;7.20;;;6.03;;
1775;SDS011;885;42.626;23.200;2022-12-07T05:03:09;7.67;;;5.60;;
1775;SDS011;885;42.626;23.200;2022-12-07T05:05:39;8.63;;;6.40;;
1775;SDS011;885;42.626;23.200;2022-12-07T05:08:08;9.30;;;5.80;;
1775;SDS011;885;42.626;23.200;2022-12-07T05:10:35;10.73;;;6.87;;
1775;SDS011;885;42.626;23.200;2022-12-07T05:13:02;10.87;;;6.70;;
1775;SDS011;885;42.626;23.200;2022-12-07T05:15:29;10.10;;;7.73;;
1775;SDS011;885;42.626;23.200;2022-12-07T05:17:55;16.50;;;9.60;;
1775;SDS011;885;42.626;23.200;2022-12-07T05:20:22;20.07;;;14.17;;
1775;SDS011;885;42.626;23.200;2022-12-07T05:22:49;25.73;;;14.37;;
1775;SDS011;885;42.626;23.200;2022-12-07T05:25:17;17.73;;;13.83;;
1775;SDS011;885;42.626;23.200;2022-12-07T05:27:44;19.60;;;13.10;;
1775;SDS011;885;42.626;23.200;2022-12-07T05:30:11;15.77;;;12.00;;
1775;SDS011;885;42.626;23.200;2022-12-07T05:32:38;14.00;;;11.07;;
1775;SDS011;885;42.626;23.200;2022-12-07T05:35:06;14.37;;;11.37;;
1775;SDS011;885;42.626;23.200;2022-12-07T05:37:33;15.67;;;11.43;;
1775;SDS011;885;42.626;23.200;2022-12-07T05:40:00;15.80;;;9.57;;
1775;SDS011;885;42.626;23.200;2022-12-07T05:42:30;13.60;;;8.53;;
1775;SDS011;885;42.626;23.200;2022-12-07T05:44:57;13.20;;;8.27;;
1775;SDS011;885;42.626;23.200;2022-12-07T05:47:23;16.27;;;8.60;;
1775;SDS011;885;42.626;23.200;2022-12-07T05:49:53;11.97;;;8.50;;
1775;SDS011;885;42.626;23.200;2022-12-07T05:52:20;13.57;;;8.33;;
1775;SDS011;885;42.626;23.200;2022-12-07T05:54:47;10.27;;;7.93;;
1775;SDS011;885;42.626;23.200;2022-12-07T05:57:14;13.77;;;9.07;;
1775;SDS011;885;42.626;23.200;2022-12-07T05:59:42;9.80;;;8.40;;
1775;SDS011;885;42.626;23.200;2022-12-07T06:02:09;14.80;;;7.77;;
1775;SDS011;885;42.626;23.200;2022-12-07T06:04:39;12.87;;;9.40;;
1775;SDS011;885;42.626;23.200;2022-12-07T06:07:07;11.80;;;8.87;;
1775;SDS011;885;42.626;23.200;2022-12-07T06:09:35;11.30;;;8.83;;
1775;SDS011;885;42.626;23.200;2022-12-07T06:12:02;11.60;;;8.40;;
1775;SDS011;885;42.626;23.200;2022-12-07T06:14:49;11.57;;;8.57;;
1775;SDS011;885;42.626;23.200;2022-12-07T06:17:16;10.30;;;7.53;;
1775;SDS011;885;42.626;23.200;2022-12-07T06:19:43;13.00;;;7.87;;
1775;SDS011;885;42.626;23.200;2022-12-07T06:22:10;11.67;;;8.30;;
1775;SDS011;885;42.626;23.200;2022-12-07T06:24:37;14.43;;;8.97;;
1775;SDS011;885;42.626;23.200;2022-12-07T06:27:05;12.60;;;8.23;;
1775;SDS011;885;42.626;23.200;2022-12-07T06:29:32;9.80;;;8.00;;
1775;SDS011;885;42.626;23.200;2022-12-07T06:32:00;13.83;;;8.37;;
1775;SDS011;885;42.626;23.200;2022-12-07T06:34:30;8.00;;;7.20;;
1775;SDS011;885;42.626;23.200;2022-12-07T06:36:57;11.53;;;8.40;;
1775;SDS011;885;42.626;23.200;2022-12-07T06:39:24;14.90;;;9.77;;
1775;SDS011;885;42.626;23.200;2022-12-07T06:41:52;11.07;;;8.00;;
1775;SDS011;885;42.626;23.200;2022-12-07T06:44:19;9.87;;;8.30;;
1775;SDS011;885;42.626;23.200;2022-12-07T06:46:48;16.33;;;9.60;;
1775;SDS011;885;42.626;23.200;2022-12-07T06:49:16;17.67;;;11.53;;
1775;SDS011;885;42.626;23.200;2022-12-07T06:51:43;53.97;;;28.90;;
1775;SDS011;885;42.626;23.200;2022-12-07T06:54:11;47.80;;;25.90;;
1775;SDS011;885;42.626;23.200;2022-12-07T06:56:39;15.30;;;11.37;;
1775;SDS011;885;42.626;23.200;2022-12-07T06:59:06;57.90;;;32.97;;
1775;SDS011;885;42.626;23.200;2022-12-07T07:01:34;64.13;;;36.50;;
1775;SDS011;885;42.626;23.200;2022-12-07T07:04:01;65.77;;;34.87;;
1775;SDS011;885;42.626;23.200;2022-12-07T07:06:30;39.30;;;21.30;;
1775;SDS011;885;42.626;23.200;2022-12-07T07:08:57;18.53;;;12.90;;
1775;SDS011;885;42.626;23.200;2022-12-07T07:11:24;12.13;;;9.70;;
1775;SDS011;885;42.626;23.200;2022-12-07T07:13:50;30.60;;;19.33;;
1775;SDS011;885;42.626;23.200;2022-12-07T07:16:18;35.90;;;23.57;;
1775;SDS011;885;42.626;23.200;2022-12-07T07:18:44;12.20;;;8.80;;
1775;SDS011;885;42.626;23.200;2022-12-07T07:21:11;12.30;;;9.00;;
1775;SDS011;885;42.626;23.200;2022-12-07T07:23:39;10.67;;;9.07;;
1775;SDS011;885;42.626;23.200;2022-12-07T07:26:06;17.33;;;13.10;;
1775;SDS011;885;42.626;23.200;2022-12-07T07:28:33;22.73;;;16.63;;
1775;SDS011;885;42.626;23.200;2022-12-07T07:31:00;24.83;;;17.43;;
1775;SDS011;885;42.626;23.200;2022-12-07T07:33:27;28.67;;;18.27;;
1775;SDS011;885;42.626;23.200;2022-12-07T07:35:53;36.60;;;24.10;;
1775;SDS011;885;42.626;23.200;2022-12-07T07:38:20;27.83;;;17.67;;
1775;SDS011;885;42.626;23.200;2022-12-07T07:40:48;19.00;;;13.27;;
1775;SDS011;885;42.626;23.200;2022-12-07T07:43:15;19.20;;;13.50;;
1775;SDS011;885;42.626;23.200;2022-12-07T07:45:42;12.30;;;9.93;;
1775;SDS011;885;42.626;23.200;2022-12-07T07:48:10;12.37;;;10.20;;
1775;SDS011;885;42.626;23.200;2022-12-07T07:50:37;12.33;;;8.47;;
1775;SDS011;885;42.626;23.200;2022-12-07T07:53:04;11.37;;;8.00;;
1775;SDS011;885;42.626;23.200;2022-12-07T07:55:30;8.30;;;7.40;;
1775;SDS011;885;42.626;23.200;2022-12-07T07:57:58;13.67;;;9.47;;
1775;SDS011;885;42.626;23.200;2022-12-07T08:00:25;9.20;;;8.27;;
1775;SDS011;885;42.626;23.200;2022-12-07T08:02:52;8.93;;;7.70;;
1775;SDS011;885;42.626;23.200;2022-12-07T08:05:19;9.43;;;7.60;;
1775;SDS011;885;42.626;23.200;2022-12-07T08:07:46;8.80;;;7.90;;
1775;SDS011;885;42.626;23.200;2022-12-07T08:10:13;9.50;;;8.10;;
1775;SDS011;885;42.626;23.200;2022-12-07T08:12:41;12.73;;;8.40;;
1775;SDS011;885;42.626;23.200;2022-12-07T08:15:24;8.27;;;6.23;;
1775;SDS011;885;42.626;23.200;2022-12-07T08:17:52;9.07;;;7.10;;
1775;SDS011;885;42.626;23.200;2022-12-07T08:20:18;10.60;;;7.73;;
1775;SDS011;885;42.626;23.200;2022-12-07T08:22:45;10.30;;;6.57;;
1775;SDS011;885;42.626;23.200;2022-12-07T08:25:12;9.00;;;5.47;;
1775;SDS011;885;42.626;23.200;2022-12-07T08:27:39;8.00;;;6.83;;
1775;SDS011;885;42.626;23.200;2022-12-07T08:30:06;8.70;;;6.70;;
1775;SDS011;885;42.626;23.200;2022-12-07T08:32:35;10.20;;;6.80;;
1775;SDS011;885;42.626;23.200;2022-12-07T08:35:02;10.27;;;7.23;;
1775;SDS011;885;42.626;23.200;2022-12-07T08:37:29;8.47;;;5.40;;
1775;SDS011;885;42.626;23.200;2022-12-07T08:39:56;8.73;;;6.60;;
1775;SDS011;885;42.626;23.200;2022-12-07T08:42:22;10.53;;;6.63;;
1775;SDS011;885;42.626;23.200;2022-12-07T08:44:54;7.40;;;6.40;;
1775;SDS011;885;42.626;23.200;2022-12-07T08:47:21;7.70;;;5.77;;
1775;SDS011;885;42.626;23.200;2022-12-07T08:49:50;7.30;;;6.30;;
1775;SDS011;885;42.626;23.200;2022-12-07T08:52:19;8.23;;;5.80;;
1775;SDS011;885;42.626;23.200;2022-12-07T08:54:47;10.40;;;5.97;;
1775;SDS011;885;42.626;23.200;2022-12-07T08:57:14;9.50;;;7.10;;
1775;SDS011;885;42.626;23.200;2022-12-07T08:59:41;7.83;;;6.60;;
1775;SDS011;885;42.626;23.200;2022-12-07T09:02:08;10.33;;;8.00;;
1775;SDS011;885;42.626;23.200;2022-12-07T09:04:35;10.07;;;7.93;;
1775;SDS011;885;42.626;23.200;2022-12-07T09:07:03;10.43;;;7.20;;
1775;SDS011;885;42.626;23.200;2022-12-07T09:09:30;8.50;;;6.17;;
1775;SDS011;885;42.626;23.200;2022-12-07T09:11:57;9.63;;;6.77;;
1775;SDS011;885;42.626;23.200;2022-12-07T09:14:24;8.20;;;6.13;;
1775;SDS011;885;42.626;23.200;2022-12-07T09:16:50;6.30;;;5.70;;
1775;SDS011;885;42.626;23.200;2022-12-07T09:19:17;7.20;;;3.83;;
1775;SDS011;885;42.626;23.200;2022-12-07T09:21:44;7.10;;;5.17;;
1775;SDS011;885;42.626;23.200;2022-12-07T09:24:12;6.23;;;5.63;;
1775;SDS011;885;42.626;23.200;2022-12-07T09:26:39;7.77;;;5.07;;
1775;SDS011;885;42.626;23.200;2022-12-07T09:29:06;6.57;;;5.57;;
1775;SDS011;885;42.626;23.200;2022-12-07T09:31:35;5.67;;;4.87;;
1775;SDS011;885;42.626;23.200;2022-12-07T09:34:02;5.00;;;4.47;;
1775;SDS011;885;42.626;23.200;2022-12-07T09:36:29;9.90;;;5.87;;
1775;SDS011;885;42.626;23.200;2022-12-07T09:38:57;12.43;;;6.20;;
1775;SDS011;885;42.626;23.200;2022-12-07T09:41:27;5.97;;;4.37;;
1775;SDS011;885;42.626;23.200;2022-12-07T09:43:58;6.67;;;4.70;;
1775;SDS011;885;42.626;23.200;2022-12-07T09:46:29;9.23;;;5.37;;
1775;SDS011;885;42.626;23.200;2022-12-07T09:49:02;6.13;;;4.23;;
1775;SDS011;885;42.626;23.200;2022-12-07T09:51:30;6.13;;;4.10;;
1775;SDS011;885;42.626;23.200;2022-12-07T09:53:57;6.80;;;4.30;;
1775;SDS011;885;42.626;23.200;2022-12-07T09:56:28;8.20;;;4.33;;
1775;SDS011;885;42.626;23.200;2022-12-07T09:58:58;6.60;;;4.30;;
1775;SDS011;885;42.626;23.200;2022-12-07T10:01:27;4.17;;;3.77;;
1775;SDS011;885;42.626;23.200;2022-12-07T10:04:08;7.73;;;4.90;;
1775;SDS011;885;42.626;23.200;2022-12-07T10:06:38;7.27;;;4.90;;
1775;SDS011;885;42.626;23.200;2022-12-07T10:09:08;6.77;;;4.20;;
1775;SDS011;885;42.626;23.200;2022-12-07T10:14:25;9.30;;;4.80;;
1775;SDS011;885;42.626;23.200;2022-12-07T10:16:53;5.40;;;3.73;;
1775;SDS011;885;42.626;23.200;2022-12-07T10:19:22;5.77;;;4.70;;
1775;SDS011;885;42.626;23.200;2022-12-07T10:22:04;6.70;;;4.40;;
1775;SDS011;885;42.626;23.200;2022-12-07T10:24:36;7.60;;;4.77;;
1775;SDS011;885;42.626;23.200;2022-12-07T10:27:09;7.67;;;4.60;;
1775;SDS011;885;42.626;23.200;2022-12-07T10:29:46;5.73;;;5.13;;
1775;SDS011;885;42.626;23.200;2022-12-07T10:32:27;6.57;;;5.17;;
1775;SDS011;885;42.626;23.200;2022-12-07T10:35:16;8.00;;;5.57;;
1775;SDS011;885;42.626;23.200;2022-12-07T10:37:46;8.27;;;5.50;;
1775;SDS011;885;42.626;23.200;2022-12-07T10:40:23;8.50;;;6.30;;
1775;SDS011;885;42.626;23.200;2022-12-07T10:43:04;10.13;;;5.50;;
1775;SDS011;885;42.626;23.200;2022-12-07T10:45:32;6.63;;;5.00;;
1775;SDS011;885;42.626;23.200;2022-12-07T10:48:02;6.50;;;4.60;;
1775;SDS011;885;42.626;23.200;2022-12-07T10:53:35;6.73;;;5.63;;
1775;SDS011;885;42.626;23.200;2022-12-07T10:56:25;8.97;;;5.97;;
1775;SDS011;885;42.626;23.200;2022-12-07T10:59:14;9.73;;;5.07;;
1775;SDS011;885;42.626;23.200;2022-12-07T11:01:52;11.33;;;6.07;;
1775;SDS011;885;42.626;23.200;2022-12-07T11:04:30;8.80;;;4.60;;
1775;SDS011;885;42.626;23.200;2022-12-07T11:07:06;6.40;;;5.10;;
1775;SDS011;885;42.626;23.200;2022-12-07T11:09:51;5.43;;;4.03;;
1775;SDS011;885;42.626;23.200;2022-12-07T11:12:31;5.07;;;4.30;;
1775;SDS011;885;42.626;23.200;2022-12-07T11:15:13;10.13;;;5.57;;
1775;SDS011;885;42.626;23.200;2022-12-07T11:17:48;5.73;;;4.83;;
1775;SDS011;885;42.626;23.200;2022-12-07T11:20:29;6.20;;;4.10;;
1775;SDS011;885;42.626;23.200;2022-12-07T11:23:10;5.43;;;4.93;;
1775;SDS011;885;42.626;23.200;2022-12-07T11:25:46;7.50;;;5.73;;
1775;SDS011;885;42.626;23.200;2022-12-07T11:28:24;6.80;;;6.20;;
1775;SDS011;885;42.626;23.200;2022-12-07T11:31:05;6.90;;;5.43;;
1775;SDS011;885;42.626;23.200;2022-12-07T11:33:41;5.87;;;3.83;;
1775;SDS011;885;42.626;23.200;2022-12-07T11:36:17;5.43;;;3.80;;
1775;SDS011;885;42.626;23.200;2022-12-07T11:39:00;6.97;;;4.73;;
1775;SDS011;885;42.626;23.200;2022-12-07T11:41:31;5.10;;;4.60;;
1775;SDS011;885;42.626;23.200;2022-12-07T11:44:04;4.60;;;4.13;;
1775;SDS011;885;42.626;23.200;2022-12-07T11:46:39;5.87;;;4.73;;
1775;SDS011;885;42.626;23.200;2022-12-07T11:49:14;4.47;;;3.73;;
1775;SDS011;885;42.626;23.200;2022-12-07T11:51:46;4.90;;;4.00;;
1775;SDS011;885;42.626;23.200;2022-12-07T11:54:19;4.90;;;4.40;;
1775;SDS011;885;42.626;23.200;2022-12-07T11:56:50;6.60;;;4.27;;
1775;SDS011;885;42.626;23.200;2022-12-07T11:59:22;6.90;;;4.50;;
1775;SDS011;885;42.626;23.200;2022-12-07T12:01:55;11.40;;;8.47;;
1775;SDS011;885;42.626;23.200;2022-12-07T12:04:30;11.03;;;7.80;;
1775;SDS011;885;42.626;23.200;2022-12-07T12:07:05;12.77;;;6.20;;
1775;SDS011;885;42.626;23.200;2022-12-07T12:09:34;6.20;;;4.43;;
1775;SDS011;885;42.626;23.200;2022-12-07T12:12:12;18.20;;;13.90;;
1775;SDS011;885;42.626;23.200;2022-12-07T12:14:59;6.20;;;5.60;;
1775;SDS011;885;42.626;23.200;2022-12-07T12:17:40;10.63;;;7.80;;
1775;SDS011;885;42.626;23.200;2022-12-07T12:20:21;9.30;;;6.50;;
1775;SDS011;885;42.626;23.200;2022-12-07T12:22:53;8.60;;;6.77;;
1775;SDS011;885;42.626;23.200;2022-12-07T12:25:25;9.27;;;7.73;;
1775;SDS011;885;42.626;23.200;2022-12-07T12:27:54;6.50;;;5.90;;
1775;SDS011;885;42.626;23.200;2022-12-07T12:30:25;8.77;;;7.43;;
1775;SDS011;885;42.626;23.200;2022-12-07T12:33:04;8.53;;;6.10;;
1775;SDS011;885;42.626;23.200;2022-12-07T12:35:39;11.83;;;7.23;;
1775;SDS011;885;42.626;23.200;2022-12-07T12:40:53;6.20;;;4.67;;
1775;SDS011;885;42.626;23.200;2022-12-07T12:43:40;4.07;;;3.60;;
1775;SDS011;885;42.626;23.200;2022-12-07T12:55:16;8.13;;;6.30;;
1775;SDS011;885;42.626;23.200;2022-12-07T12:57:46;5.70;;;5.10;;
1775;SDS011;885;42.626;23.200;2022-12-07T13:00:18;10.43;;;6.30;;
1775;SDS011;885;42.626;23.200;2022-12-07T13:02:47;8.03;;;5.53;;
1775;SDS011;885;42.626;23.200;2022-12-07T13:05:18;7.60;;;5.50;;
1775;SDS011;885;42.626;23.200;2022-12-07T13:07:54;5.30;;;4.43;;
1775;SDS011;885;42.626;23.200;2022-12-07T13:10:29;10.23;;;5.80;;
1775;SDS011;885;42.626;23.200;2022-12-07T13:13:02;7.43;;;5.50;;
1775;SDS011;885;42.626;23.200;2022-12-07T13:15:31;6.70;;;6.10;;
1775;SDS011;885;42.626;23.200;2022-12-07T13:18:03;11.50;;;7.33;;
1775;SDS011;885;42.626;23.200;2022-12-07T13:20:50;12.50;;;10.63;;
1775;SDS011;885;42.626;23.200;2022-12-07T13:23:19;15.87;;;12.80;;
1775;SDS011;885;42.626;23.200;2022-12-07T13:26:11;12.70;;;9.97;;
1775;SDS011;885;42.626;23.200;2022-12-07T13:28:42;10.87;;;8.50;;
1775;SDS011;885;42.626;23.200;2022-12-07T13:31:16;8.00;;;6.80;;
1775;SDS011;885;42.626;23.200;2022-12-07T13:33:49;8.30;;;6.80;;
1775;SDS011;885;42.626;23.200;2022-12-07T13:36:21;21.10;;;18.97;;
1775;SDS011;885;42.626;23.200;2022-12-07T13:38:51;10.07;;;9.17;;
1775;SDS011;885;42.626;23.200;2022-12-07T13:41:21;18.53;;;14.40;;
1775;SDS011;885;42.626;23.200;2022-12-07T13:43:50;16.80;;;10.30;;
1775;SDS011;885;42.626;23.200;2022-12-07T13:46:20;25.20;;;13.87;;
1775;SDS011;885;42.626;23.200;2022-12-07T13:48:57;13.10;;;7.60;;
1775;SDS011;885;42.626;23.200;2022-12-07T13:51:26;11.77;;;6.70;;
1775;SDS011;885;42.626;23.200;2022-12-07T13:53:54;6.83;;;5.10;;
1775;SDS011;885;42.626;23.200;2022-12-07T13:56:26;5.43;;;4.93;;
1775;SDS011;885;42.626;23.200;2022-12-07T13:58:57;8.63;;;6.33;;
1775;SDS011;885;42.626;23.200;2022-12-07T14:01:25;9.43;;;8.37;;
1775;SDS011;885;42.626;23.200;2022-12-07T14:03:52;10.87;;;9.77;;
1775;SDS011;885;42.626;23.200;2022-12-07T14:06:21;7.07;;;4.83;;
1775;SDS011;885;42.626;23.200;2022-12-07T14:09:05;9.83;;;6.50;;
1775;SDS011;885;42.626;23.200;2022-12-07T14:11:42;19.97;;;13.40;;
1775;SDS011;885;42.626;23.200;2022-12-07T14:14:10;12.70;;;7.70;;
1775;SDS011;885;42.626;23.200;2022-12-07T14:16:43;23.30;;;13.90;;
1775;SDS011;885;42.626;23.200;2022-12-07T14:22:19;19.37;;;11.40;;
1775;SDS011;885;42.626;23.200;2022-12-07T14:24:51;30.13;;;15.77;;
1775;SDS011;885;42.626;23.200;2022-12-07T14:27:24;15.63;;;10.30;;
1775;SDS011;885;42.626;23.200;2022-12-07T14:29:55;7.50;;;5.20;;
1775;SDS011;885;42.626;23.200;2022-12-07T14:32:23;23.50;;;15.90;;
1775;SDS011;885;42.626;23.200;2022-12-07T14:34:58;12.53;;;7.80;;
1775;SDS011;885;42.626;23.200;2022-12-07T14:37:29;14.10;;;8.13;;
1775;SDS011;885;42.626;23.200;2022-12-07T14:39:56;30.53;;;15.53;;
1775;SDS011;885;42.626;23.200;2022-12-07T14:42:24;33.23;;;17.40;;
1775;SDS011;885;42.626;23.200;2022-12-07T14:44:53;25.13;;;15.47;;
1775;SDS011;885;42.626;23.200;2022-12-07T14:47:20;9.50;;;7.07;;
1775;SDS011;885;42.626;23.200;2022-12-07T14:49:47;31.13;;;19.43;;
1775;SDS011;885;42.626;23.200;2022-12-07T14:52:15;18.20;;;12.63;;
1775;SDS011;885;42.626;23.200;2022-12-07T14:54:45;12.43;;;10.40;;
1775;SDS011;885;42.626;23.200;2022-12-07T14:57:12;11.77;;;9.77;;
1775;SDS011;885;42.626;23.200;2022-12-07T14:59:38;11.80;;;10.10;;
1775;SDS011;885;42.626;23.200;2022-12-07T15:02:05;13.43;;;9.07;;
1775;SDS011;885;42.626;23.200;2022-12-07T15:04:35;11.27;;;9.20;;
1775;SDS011;885;42.626;23.200;2022-12-07T15:07:03;14.37;;;9.57;;
1775;SDS011;885;42.626;23.200;2022-12-07T15:09:30;18.87;;;13.70;;
1775;SDS011;885;42.626;23.200;2022-12-07T15:11:59;26.57;;;17.90;;
1775;SDS011;885;42.626;23.200;2022-12-07T15:14:26;43.67;;;28.80;;
1775;SDS011;885;42.626;23.200;2022-12-07T15:16:52;19.50;;;14.10;;
1775;SDS011;885;42.626;23.200;2022-12-07T15:19:20;24.10;;;15.00;;
1775;SDS011;885;42.626;23.200;2022-12-07T15:21:50;16.73;;;11.70;;
1775;SDS011;885;42.626;23.200;2022-12-07T15:24:18;12.20;;;10.00;;
1775;SDS011;885;42.626;23.200;2022-12-07T15:26:45;12.00;;;8.60;;
1775;SDS011;885;42.626;23.200;2022-12-07T15:29:13;11.03;;;8.90;;
1775;SDS011;885;42.626;23.200;2022-12-07T15:31:42;9.90;;;6.97;;
1775;SDS011;885;42.626;23.200;2022-12-07T15:34:09;17.30;;;7.53;;
1775;SDS011;885;42.626;23.200;2022-12-07T15:36:36;8.97;;;7.87;;
1775;SDS011;885;42.626;23.200;2022-12-07T15:39:03;7.73;;;6.70;;
1775;SDS011;885;42.626;23.200;2022-12-07T15:41:30;23.23;;;16.67;;
1775;SDS011;885;42.626;23.200;2022-12-07T15:43:57;13.70;;;11.80;;
1775;SDS011;885;42.626;23.200;2022-12-07T15:46:42;25.07;;;19.50;;
1775;SDS011;885;42.626;23.200;2022-12-07T15:49:10;12.50;;;11.20;;
1775;SDS011;885;42.626;23.200;2022-12-07T15:51:39;16.90;;;15.10;;